Airfield :
LOGIN :

Register | Disclaimer

   EN    FR    IT 

 










Legend :    VFR   Marginal VFR   IFR   Intensive IFR   Very Intensive IFR
Visi :
Ceiling :
>= 8 km
>= 3000ft
5 to 8 km
1000 to 3000 ft
1500m to 5 km
500 to 1000 ft
800 to 1500m
200 to 500 ft
< 800m
< 200 ft
Symbols :   Thunderstorms  Fog  Heavy snow  Heavy precipitations  Wind > 20 kt
SIGMETs :     Misc.  Thunderstorms  Icing  Turbulence  Mountain Waves  Volcanic Ashes






- Airport Elevation : 1197 ft
- IATA code : SPM


ETAD - Spangdahlem Ab

CURRENT METAR :
  • 281956Z AUTO 34004KT 9999 FEW090 11/02 A3004 RMK AO2 SLP163 T01100015 $

EXPIRED METARs :
  • 281856Z AUTO 35007KT 9999 FEW055 BKN090 13/02 A3004 RMK AO2 SLP163 T01260024 $
  • 281756Z 36006KT 9999 FEW075 SCT090 14/02 A3004 RMK AO2A SLP165 60000 T01370020 10171 20137 56008 $

TAF AMD TAF ETAD
Valid from the 28 at 18:00 until the 29 at 20:00 UTC


281800Z 2818/2920 35008KT 9999 SCT060 QNH3004INS
BECMG 2903/2904 VRB06KT 6000 BR BKN015 QNH2997INS
BECMG 2907/2908 36009KT 9999 NSW SCT035 BKN050 QNH2993INS
BECMG 2912/2913 35010G15KT 8000 -SHRA BKN020 QNH2989INS TX14/2818Z TN06/2904Z LAST NO AMDS AFT 2818 NEXT 2906



MET'MAP, your aeronautical weather chart ! - Copyright ORBIFLY December 2007 - Disclaimer

ORBIFLY MET'MAP TEAM :

Programming & Development : Alexandra Zaïnal
Original concept : Baudouin d'Aumeries
Technical & hardware support : Manuel Goepfert
Assistance : Marc-Olivier Méhu

Contact : metmap@orbifly.com




SOURCES & CREDITS :

   NOAA